地図

経路データ

SID SEASON NUMBER BASIN SUBBASIN NAME ISO_TIME NATURE LAT LON WMO_WIND WMO_PRES WMO_AGENCY TRACK_TYPE DIST2LAND LANDFALL IFLAG USA_AGENCY USA_ATCF_ID USA_LAT USA_LON USA_RECORD USA_STATUS USA_WIND USA_PRES USA_SSHS USA_R34_NE USA_R34_SE USA_R34_SW USA_R34_NW USA_R50_NE USA_R50_SE USA_R50_SW USA_R50_NW USA_R64_NE USA_R64_SE USA_R64_SW USA_R64_NW USA_POCI USA_ROCI USA_RMW USA_EYE TOKYO_LAT TOKYO_LON TOKYO_GRADE TOKYO_WIND TOKYO_PRES TOKYO_R50_DIR TOKYO_R50_LONG TOKYO_R50_SHORT TOKYO_R30_DIR TOKYO_R30_LONG TOKYO_R30_SHORT TOKYO_LAND CMA_LAT CMA_LON CMA_CAT CMA_WIND CMA_PRES HKO_LAT HKO_LON HKO_CAT HKO_WIND HKO_PRES NEWDELHI_LAT NEWDELHI_LON NEWDELHI_GRADE NEWDELHI_WIND NEWDELHI_PRES NEWDELHI_CI NEWDELHI_DP NEWDELHI_POCI REUNION_LAT REUNION_LON REUNION_TYPE REUNION_WIND REUNION_PRES REUNION_TNUM REUNION_CI REUNION_RMW REUNION_R34_NE REUNION_R34_SE REUNION_R34_SW REUNION_R34_NW REUNION_R50_NE REUNION_R50_SE REUNION_R50_SW REUNION_R50_NW REUNION_R64_NE REUNION_R64_SE REUNION_R64_SW REUNION_R64_NW BOM_LAT BOM_LON BOM_TYPE BOM_WIND BOM_PRES BOM_TNUM BOM_CI BOM_RMW BOM_R34_NE BOM_R34_SE BOM_R34_SW BOM_R34_NW BOM_R50_NE BOM_R50_SE BOM_R50_SW BOM_R50_NW BOM_R64_NE BOM_R64_SE BOM_R64_SW BOM_R64_NW BOM_ROCI BOM_POCI BOM_EYE BOM_POS_METHOD BOM_PRES_METHOD NADI_LAT NADI_LON NADI_CAT NADI_WIND NADI_PRES WELLINGTON_LAT WELLINGTON_LON WELLINGTON_WIND WELLINGTON_PRES DS824_LAT DS824_LON DS824_STAGE DS824_WIND DS824_PRES TD9636_LAT TD9636_LON TD9636_STAGE TD9636_WIND TD9636_PRES TD9635_LAT TD9635_LON TD9635_WIND TD9635_PRES TD9635_ROCI NEUMANN_LAT NEUMANN_LON NEUMANN_CLASS NEUMANN_WIND NEUMANN_PRES MLC_LAT MLC_LON MLC_CLASS MLC_WIND MLC_PRES USA_GUST BOM_GUST BOM_GUST_PER REUNION_GUST REUNION_GUST_PER USA_SEAHGT USA_SEARAD_NE USA_SEARAD_SE USA_SEARAD_SW USA_SEARAD_NW STORM_SPEED STORM_DIR
1995323N05097 1995 91 NI BB NOT_NAMED 1995-11-18 18:00:00 NR 5.40000 97.2000 main 25 22 O_____________ jtwc_io IO041995 5.40000 97.2000 20 -1 6 280
1995323N05097 1995 91 NI BB NOT_NAMED 1995-11-18 21:00:00 NR 5.45253 96.9000 main 33 33 P_____________ IO041995 5.45253 96.9000 20 -1 6 280
1995323N05097 1995 91 NI BB NOT_NAMED 1995-11-19 00:00:00 NR 5.50000 96.6000 main 33 31 O_____________ jtwc_io IO041995 5.50000 96.6000 20 -1 6 279
1995323N05097 1995 91 NI BB NOT_NAMED 1995-11-19 03:00:00 NR 5.54248 96.3000 main 31 15 P_____________ IO041995 5.54248 96.3000 20 -1 6 280
1995323N05097 1995 91 NI BB NOT_NAMED 1995-11-19 06:00:00 NR 5.60000 96.0000 main 15 11 O_____________ jtwc_io IO041995 5.60000 96.0000 20 -1 6 284
1995323N05097 1995 91 NI BB NOT_NAMED 1995-11-19 09:00:00 NR 5.69247 95.7075 main 22 15 P_____________ IO041995 5.69247 95.7075 20 -1 6 288
1995323N05097 1995 91 NI BB NOT_NAMED 1995-11-19 12:00:00 NR 5.80000 95.4000 main 22 22 O_____________ jtwc_io IO041995 5.80000 95.4000 20 -1 7 288
1995323N05097 1995 91 NI BB NOT_NAMED 1995-11-19 15:00:00 NR 5.90749 95.0575 main 35 35 P_____________ IO041995 5.90749 95.0575 20 -1 7 286
1995323N05097 1995 91 NI BB NOT_NAMED 1995-11-19 18:00:00 NR 6.00000 94.7000 main 71 71 O_____________ jtwc_io IO041995 6.00000 94.7000 20 -1 7 282
1995323N05097 1995 91 NI BB NOT_NAMED 1995-11-19 21:00:00 NR 6.05748 94.3500 main 114 114 P_____________ IO041995 6.05748 94.3500 20 -1 7 278
1995323N05097 1995 91 NI BB NOT_NAMED 1995-11-20 00:00:00 NR 6.10000 94.0000 main 144 144 O_____________ jtwc_io IO041995 6.10000 94.0000 20 -1 7 277
1995323N05097 1995 91 NI BB NOT_NAMED 1995-11-20 03:00:00 NR 6.14248 93.6500 main 175 185 P_____________ IO041995 6.14248 93.6500 20 -1 7 278
1995323N05097 1995 91 NI BB NOT_NAMED 1995-11-20 06:00:00 NR 6.20000 93.3000 main 220 220 O_____________ jtwc_io IO041995 6.20000 93.3000 20 -1 7 283
1995323N05097 1995 91 NI BB NOT_NAMED 1995-11-20 09:00:00 NR 6.29999 92.9425 main 266 266 P_____________ IO041995 6.29999 92.9425 20 -1 7 286
1995323N05097 1995 91 NI BB NOT_NAMED 1995-11-20 12:00:00 NR 6.40000 92.6000 main 301 301 O_____________ jtwc_io IO041995 6.40000 92.6000 20 -1 7 284
1995323N05097 1995 91 NI BB NOT_NAMED 1995-11-20 15:00:00 NR 6.45748 92.2850 main 336 336 P_____________ IO041995 6.45748 92.2850 20 -1 6 280
1995323N05097 1995 91 NI BB NOT_NAMED 1995-11-20 18:00:00 NR 6.50000 92.0000 main 368 368 O_____________ jtwc_io IO041995 6.50000 92.0000 20 -1 5 279
1995323N05097 1995 91 NI BB NOT_NAMED 1995-11-20 21:00:00 NR 6.54246 91.7500 main 389 400 P_____________ IO041995 6.54246 91.7500 20 -1 5 281
1995323N05097 1995 91 NI BB NOT_NAMED 1995-11-21 00:00:00 NR 6.60000 91.5000 main 424 424 O_____________ jtwc_io IO041995 6.60000 91.5000 20 -1 6 287
1995323N05097 1995 91 NI BB NOT_NAMED 1995-11-21 03:00:00 NR 6.69998 91.2150 main 459 459 P_____________ IO041995 6.69998 91.2150 22 -1 6 289
1995323N05097 1995 91 NI BB NOT_NAMED 1995-11-21 06:00:00 NR 6.80000 90.9000 main 494 494 O_____________ jtwc_io IO041995 6.80000 90.9000 25 -1 7 284
1995323N05097 1995 91 NI BB NOT_NAMED 1995-11-21 09:00:00 NR 6.85745 90.5725 main 529 529 P_____________ IO041995 6.85745 90.5725 25 -1 5 272
1995323N05097 1995 91 NI BB NOT_NAMED 1995-11-21 12:00:00 NR 6.82000 90.3600 25 1002 newdelhi main 547 547 O___O_________ jtwc_io IO041995 6.90000 90.2000 25 -1 6.50000 91.0000 25 1002 1.50000 4 1006 5 272
1995323N05097 1995 91 NI BB NOT_NAMED 1995-11-21 15:00:00 NR 6.87266 90.0940 main 582 582 P___P_________ IO041995 6.94252 89.7575 25 -1 6.73295 90.7670 25 1002 4 1006 6 288
1995323N05097 1995 91 NI BB NOT_NAMED 1995-11-21 18:00:00 NR 7.00000 89.8143 25 1002 newdelhi main 617 617 O___O_________ jtwc_io IO041995 7.00000 89.3000 25 -1 7.00000 90.5000 25 1002 1.50000 4 1006 6 300
1995323N05097 1995 91 NI BB NOT_NAMED 1995-11-21 21:00:00 NR 7.19307 89.5382 main 655 655 P___P_________ IO041995 7.08498 88.8775 25 -1 7.30116 90.1989 25 1002 4 1006 7 302
1995323N05097 1995 91 NI BB NOT_NAMED 1995-11-22 00:00:00 NR 7.35000 89.2500 25 1002 newdelhi main 682 682 O___O_________ jtwc_io IO041995 7.20000 88.5000 25 -1 7.50000 90.0000 25 1002 1.50000 4 1006 5 295
1995323N05097 1995 91 NI BB NOT_NAMED 1995-11-22 03:00:00 NR 7.40624 89.0812 30 1000 newdelhi main 704 704 P___O_________ IO041995 7.31248 88.1625 27 -1 7.50000 90.0000 30 1000 2.00000 6 1006 9 297
1995323N05097 1995 91 NI BB NOT_NAMED 1995-11-22 06:00:00 NR 7.75000 88.4500 30 1000 newdelhi main 733 702 O___O_________ jtwc_io IO041995 7.50000 87.9000 30 -1 8.00000 89.0000 30 1000 2.00000 6 1006 11 306
1995323N05097 1995 91 NI BB NOT_NAMED 1995-11-22 09:00:00 NR 8.04327 88.1900 main 704 695 P___P_________ IO041995 7.81993 87.7499 32 -1 8.26660 88.6301 32 999 7 1006 7 327
1995323N05097 1995 91 NI BB NOT_NAMED 1995-11-22 12:00:00 NR 8.35000 88.0500 35 998 newdelhi main 700 661 O___O_________ jtwc_io IO041995 8.20000 87.6000 35 0 8.50000 88.5000 35 998 2.50000 8 1006 9 326
1995323N05097 1995 91 NI BB NOT_NAMED 1995-11-22 15:00:00 NR 8.78253 87.6839 main 663 628 P___P_________ IO041995 8.56500 87.3300 40 0 9.00006 88.0378 40 996 10 1006 12 317
1995323N05097 1995 91 NI BB NOT_NAMED 1995-11-22 18:00:00 NR 9.20000 87.2500 45 994 newdelhi main 631 589 O___O_________ jtwc_io IO041995 8.90000 87.0000 45 0 9.50000 87.5000 45 994 3.00000 12 1006 11 310
1995323N05097 1995 91 NI BB NOT_NAMED 1995-11-22 21:00:00 NR 9.50008 86.8250 main 589 558 P___P_________ IO041995 9.16500 86.6499 50 0 9.83516 87.0000 45 994 12 1006 10 301
1995323N05097 1995 91 NI BB NOT_NAMED 1995-11-23 00:00:00 NR 9.70000 86.4000 45 994 newdelhi main 558 523 O___O_________ jtwc_io IO041995 9.40000 86.3000 55 0 10.0000 86.5000 45 994 3.00000 12 1006 9 291
1995323N05097 1995 91 NI BB NOT_NAMED 1995-11-23 03:00:00 NR 9.80997 85.9999 55 990 newdelhi main 523 503 P___O_________ IO041995 9.61994 85.9998 57 0 10.0000 86.0000 55 990 3.50000 16 1006 9 302
1995323N05097 1995 91 NI BB NOT_NAMED 1995-11-23 06:00:00 NR 10.2000 85.6000 55 990 newdelhi main 503 483 O___O_________ jtwc_io IO041995 9.90000 85.7000 60 0 10.5000 85.5000 55 990 3.50000 16 1006 10 314
1995323N05097 1995 91 NI BB NOT_NAMED 1995-11-23 09:00:00 NR 10.5285 85.2386 main 478 475 P___P_________ IO041995 10.2901 85.3127 62 0 10.7670 85.1646 55 989 17 1006 9 320
1995323N05097 1995 91 NI BB NOT_NAMED 1995-11-23 12:00:00 NR 10.9000 85.0000 55 988 newdelhi main 484 484 O___O_________ jtwc_io IO041995 10.8000 85.0000 65 1 11.0000 85.0000 55 988 3.50000 18 1006 9 341
1995323N05097 1995 91 NI BB NOT_NAMED 1995-11-23 15:00:00 NR 11.4150 84.9224 main 505 505 P___P_________ IO041995 11.4049 84.8825 70 1 11.4250 84.9624 60 986 20 1006 12 357
1995323N05097 1995 91 NI BB NOT_NAMED 1995-11-23 18:00:00 NR 12.0500 84.9500 65 984 newdelhi main 523 513 O___O_________ jtwc_io IO041995 12.1000 84.9000 75 1 12.0000 85.0000 65 984 4.00000 22 1006 13 2
1995323N05097 1995 91 NI BB NOT_NAMED 1995-11-23 21:00:00 NR 12.7499 84.9738 main 513 452 P___P_________ IO041995 12.8350 84.9477 85 2 12.6648 85.0000 71 980 26 1006 15 4
1995323N05097 1995 91 NI BB NOT_NAMED 1995-11-24 00:00:00 NR 13.5500 85.0500 77 976 newdelhi main 450 396 O___O_________ jtwc_io IO041995 13.6000 85.1000 95 2 13.5000 85.0000 77 976 4.50000 30 1006 17 7
1995323N05097 1995 91 NI BB NOT_NAMED 1995-11-24 03:00:00 NR 14.4250 85.1850 90 964 newdelhi main 396 367 P___O_________ IO041995 14.3500 85.3699 100 3 14.5000 85.0000 90 964 5.00000 42 1006 15 11
1995323N05097 1995 91 NI BB NOT_NAMED 1995-11-24 06:00:00 NR 15.0500 85.3500 90 960 newdelhi main 365 337 O___O_________ jtwc_io IO041995 15.1000 85.7000 105 3 15.0000 85.0000 90 960 5.00000 46 1006 15 22
1995323N05097 1995 91 NI BB NOT_NAMED 1995-11-24 09:00:00 NR 15.7742 85.7452 main 327 308 P___P_________ IO041995 15.8497 85.9484 105 3 15.6987 85.5421 96 958 25 1007 18 34
1995323N05097 1995 91 NI BB NOT_NAMED 1995-11-24 12:00:00 NR 16.5500 86.4000 102 956 newdelhi main 307 307 O___O_________ jtwc_io IO041995 16.6000 86.3000 105 3 16.5000 86.5000 102 956 5.50000 5 1008 22 44
1995323N05097 1995 91 NI BB NOT_NAMED 1995-11-24 15:00:00 NR 17.3235 87.3066 main 316 286 P___P_________ IO041995 17.3574 86.8678 105 3 17.2896 87.7454 96 959 25 1008 23 49
1995323N05097 1995 91 NI BB NOT_NAMED 1995-11-24 18:00:00 NR 18.0500 88.2000 90 962 newdelhi main 284 267 O___O_________ jtwc_io IO041995 18.1000 87.6000 105 3 18.0000 88.8000 90 962 5.00000 46 1008 18 43
1995323N05097 1995 91 NI BB NOT_NAMED 1995-11-24 21:00:00 NR 18.6183 88.5798 main 275 266 P___P_________ IO041995 18.8072 88.3983 97 3 18.4294 88.7613 83 966 41 1006 15 37
1995323N05097 1995 91 NI BB NOT_NAMED 1995-11-25 00:00:00 NR 19.2500 89.1500 77 970 newdelhi main 257 190 O___O_________ jtwc_io IO041995 19.5000 89.3000 90 2 19.0000 89.0000 77 970 4.50000 36 1004 23 48
1995323N05097 1995 91 NI BB NOT_NAMED 1995-11-25 03:00:00 NR 20.1097 90.3649 77 972 newdelhi main 191 70 P___O_________ IO041995 20.1920 90.2635 87 2 20.0000 90.5000 77 972 4.50000 34 1006 28 53
1995323N05097 1995 91 NI BB NOT_NAMED 1995-11-25 06:00:00 NR 20.9333 91.5333 65 978 newdelhi main 70 0 O___O_________ jtwc_io IO041995 20.9000 91.3000 85 2 21.0000 92.0000 65 978 4.00000 28 1006 26 54
1995323N05097 1995 91 NI BB NOT_NAMED 1995-11-25 09:00:00 NR 21.6319 92.6200 newdelhi main 0 0 P___O_________ IO041995 21.6648 92.4000 65 1 21.5000 93.5000 0.00000 23 51
1995323N05097 1995 91 NI BB NOT_NAMED 1995-11-25 12:00:00 NR 22.4000 93.5000 main 0 0 O_____________ jtwc_io IO041995 22.4000 93.5000 45 0 23 51
1995323N05097 1995 91 NI BB NOT_NAMED 1995-11-25 15:00:00 NR 23.0333 94.5240 main 0 0 P_____________ IO041995 23.0333 94.5240 37 0 22 57
1995323N05097 1995 91 NI BB NOT_NAMED 1995-11-25 18:00:00 NR 23.6000 95.5000 main 0 O_____________ jtwc_io IO041995 23.6000 95.5000 30 -1 21 58

IBTrACS Databaseについて

本データベースは、米国NOAAが公開する1842年以降の世界の熱帯低気圧のベストトラックデータアーカイブInternational Best Track Archive for Climate Stewardship (IBTrACS)を、ウェブで閲覧しやすい形式に変換したものです。

最終更新日:2021-10-08